Bearden, Oklahoma
Current Conditions -  °F | °C
As of 11:55 AM on Saturday 25 Oct 2014 (Local Time) from KOKM Reporting Station
Clear Clear  
Wind Chill: 25°   Ceiling: Unl
Heat Index: 26°   Visibility: 10mi
Dew Point: 18°   Wind: 7mph
Humidity: 63%   Direction: 200°SSW
Pressure: 30.09"   Gusts: NA
Location:  35.469°N, 96.2923°W
Report Text: KOKM 251655Z AUTO 20006KT 10SM CLR 25/18 A3009 RMK AO2 T02510177
Loading
Personal Weather Stations






























Interactive Weather Map
Tropical Storm Tracking
New forecast layout! Learn more

10-Day Weather Forecast

Advertisements
Track Severe Weather on mobile